Time;durP1;ratioP1;P1;durP2;ratioP2;P2;SDS_P1;SDS_P2;PMS_P1;PMS_P2;Temp;Humidity;BMP_temperature;BMP_pressure;BME280_temperature;BME280_humidity;BME280_pressure;Samples;Min_cycle;Max_cycle;Signal;HPM_P1;HPM_P2
2023/08/25 00:00:36;;;;;;;19.92;13.60;;;20.00;99.90;;;;;;5066050;28;20730;-63
2023/08/25 00:03:03;;;;;;;20.52;15.52;;;20.00;99.90;;;;;;5045420;28;20602;-63
2023/08/25 00:05:28;;;;;;;19.60;15.70;;;20.00;99.90;;;;;;5065581;28;20066;-63
2023/08/25 00:07:54;;;;;;;18.75;14.98;;;20.00;99.90;;;;;;5065942;28;20048;-63
2023/08/25 00:10:19;;;;;;;20.95;13.88;;;20.00;99.90;;;;;;5065533;28;20190;-62
2023/08/25 00:12:46;;;;;;;19.33;14.95;;;20.00;99.90;;;;;;5057303;28;20049;-63
2023/08/25 00:15:12;;;;;;;19.45;15.20;;;19.90;99.90;;;;;;5045600;28;20053;-63
2023/08/25 00:17:38;;;;;;;22.70;15.35;;;19.90;99.90;;;;;;5061032;28;20040;-63
2023/08/25 00:20:08;;;;;;;19.77;16.75;;;19.90;99.90;;;;;;5047118;28;20091;-63
2023/08/25 00:22:34;;;;;;;22.52;17.52;;;19.80;99.90;;;;;;5055968;28;20042;-63
2023/08/25 00:25:00;;;;;;;23.83;17.20;;;19.80;99.90;;;;;;5066322;28;20055;-64
2023/08/25 00:27:25;;;;;;;23.92;17.52;;;19.80;99.90;;;;;;5066647;28;20036;-64
2023/08/25 00:29:53;;;;;;;27.25;19.67;;;19.80;99.90;;;;;;5065639;28;20044;-62
2023/08/25 00:32:18;;;;;;;25.17;20.45;;;19.80;99.90;;;;;;5065198;28;20125;-65
2023/08/25 00:34:44;;;;;;;25.70;20.45;;;19.80;99.90;;;;;;5048109;28;20049;-63
2023/08/25 00:37:10;;;;;;;29.45;20.50;;;19.80;99.90;;;;;;5050877;28;20251;-63
2023/08/25 00:39:38;;;;;;;28.35;21.60;;;19.80;99.90;;;;;;5066192;28;20076;-64
2023/08/25 00:42:04;;;;;;;27.48;20.55;;;19.70;99.90;;;;;;5065227;28;20048;-62
2023/08/25 00:44:29;;;;;;;30.23;21.50;;;19.80;99.90;;;;;;5053725;28;20408;-63
2023/08/25 00:46:55;;;;;;;25.58;21.10;;;19.80;99.90;;;;;;5053037;28;20109;-62
2023/08/25 00:49:22;;;;;;;28.17;21.63;;;19.80;99.90;;;;;;5051249;28;20571;-64
2023/08/25 00:51:49;;;;;;;29.70;20.60;;;19.80;99.90;;;;;;5041563;28;20047;-63
2023/08/25 00:54:14;;;;;;;26.98;21.90;;;19.80;99.90;;;;;;5044204;28;20505;-64
2023/08/25 00:56:40;;;;;;;36.42;21.92;;;19.80;99.90;;;;;;5046420;28;20123;-63
2023/08/25 00:59:06;;;;;;;29.25;21.20;;;19.80;99.90;;;;;;5045786;28;20569;-63
2023/08/25 01:01:32;;;;;;;23.65;21.00;;;19.80;99.90;;;;;;5058226;28;20503;-65
2023/08/25 01:03:57;;;;;;;26.42;20.50;;;19.80;99.90;;;;;;5054632;28;20037;-63
2023/08/25 01:06:23;;;;;;;28.73;19.85;;;19.80;99.90;;;;;;5065659;28;20177;-64
2023/08/25 01:08:49;;;;;;;23.20;19.60;;;19.80;99.90;;;;;;5056691;28;20045;-64
2023/08/25 01:11:27;;;;;;;26.60;20.67;;;19.80;99.90;;;;;;5065790;28;20538;-64
2023/08/25 01:14:30;;;;;;;24.17;19.67;;;19.80;99.90;;;;;;5065857;28;20040;-63
2023/08/25 01:17:23;;;;;;;26.52;20.80;;;19.80;99.90;;;;;;5054341;28;20091;-64
2023/08/25 01:19:58;;;;;;;26.52;19.63;;;19.80;99.90;;;;;;5048524;28;20527;-64
2023/08/25 01:22:32;;;;;;;25.75;21.38;;;19.80;99.90;;;;;;5027805;28;20068;-63
2023/08/25 01:25:26;;;;;;;30.77;22.42;;;19.80;99.90;;;;;;5044301;28;20037;-65
2023/08/25 01:27:52;;;;;;;30.52;23.02;;;19.80;99.90;;;;;;5045491;28;20037;-65
2023/08/25 01:30:19;;;;;;;29.05;22.42;;;19.80;99.90;;;;;;5062235;28;20044;-62
2023/08/25 01:32:45;;;;;;;28.48;23.38;;;19.80;99.90;;;;;;5047736;28;20048;-64
2023/08/25 01:35:14;;;;;;;33.20;24.42;;;19.70;99.90;;;;;;5063460;28;20040;-64
2023/08/25 01:37:46;;;;;;;31.77;23.63;;;19.70;99.90;;;;;;5064114;28;20329;-63
2023/08/25 01:40:20;;;;;;;26.55;22.23;;;19.70;99.90;;;;;;5050643;28;20045;-65
2023/08/25 01:42:47;;;;;;;29.20;23.70;;;19.70;99.90;;;;;;5045393;28;20161;-64
2023/08/25 01:45:15;;;;;;;29.48;23.80;;;19.70;99.90;;;;;;5045407;28;20404;-64
2023/08/25 01:47:42;;;;;;;29.15;24.52;;;19.70;99.90;;;;;;5058306;28;20040;-64
2023/08/25 01:50:09;;;;;;;32.20;24.95;;;19.60;99.90;;;;;;5048792;28;20080;-65
2023/08/25 01:52:35;;;;;;;29.35;24.08;;;19.60;99.90;;;;;;5044102;28;20045;-63
2023/08/25 01:55:02;;;;;;;30.40;25.38;;;19.60;99.90;;;;;;5038665;28;20415;-64
2023/08/25 01:57:28;;;;;;;32.92;26.45;;;19.60;99.90;;;;;;5043894;28;20368;-63
2023/08/25 01:59:53;;;;;;;35.53;27.95;;;19.50;99.90;;;;;;5043732;28;20072;-64
2023/08/25 02:02:19;;;;;;;37.67;27.33;;;19.50;99.90;;;;;;5055972;28;20403;-64
2023/08/25 02:04:44;;;;;;;35.30;27.25;;;19.50;99.90;;;;;;5061825;28;20090;-64
2023/08/25 02:07:10;;;;;;;33.95;27.10;;;19.50;99.90;;;;;;5063782;28;20044;-63
2023/08/25 02:09:36;;;;;;;35.63;28.73;;;19.50;99.90;;;;;;5064986;28;20326;-63
2023/08/25 02:12:01;;;;;;;37.42;29.05;;;19.50;99.90;;;;;;5050788;28;20114;-64
2023/08/25 02:14:27;;;;;;;35.83;28.60;;;19.40;99.90;;;;;;5044909;28;20152;-64
2023/08/25 02:16:52;;;;;;;37.65;29.10;;;19.40;99.90;;;;;;5052017;28;20044;-64
2023/08/25 02:19:18;;;;;;;37.28;28.75;;;19.40;99.90;;;;;;5050849;28;20491;-63
2023/08/25 02:21:45;;;;;;;35.72;29.52;;;19.40;99.90;;;;;;5043481;28;20512;-65
2023/08/25 02:24:10;;;;;;;40.58;30.08;;;19.40;99.90;;;;;;5062337;28;20056;-63
2023/08/25 02:26:36;;;;;;;38.00;30.15;;;19.40;99.90;;;;;;5064614;28;20041;-63
2023/08/25 02:29:01;;;;;;;39.08;31.48;;;19.40;99.90;;;;;;5046056;28;20045;-64
2023/08/25 02:31:27;;;;;;;38.40;30.75;;;19.40;99.90;;;;;;5047228;28;20060;-64
2023/08/25 02:33:52;;;;;;;39.58;31.45;;;19.30;99.90;;;;;;5055580;28;20032;-63
2023/08/25 02:36:18;;;;;;;39.15;31.45;;;19.40;99.90;;;;;;5044574;28;20041;-63
2023/08/25 02:38:44;;;;;;;43.42;32.97;;;19.40;99.90;;;;;;5043445;28;20072;-63
2023/08/25 02:41:09;;;;;;;38.70;31.27;;;19.30;99.90;;;;;;5044380;28;20048;-63
2023/08/25 02:43:35;;;;;;;46.42;32.92;;;19.30;99.90;;;;;;5060999;28;20028;-64
2023/08/25 02:46:00;;;;;;;46.45;32.55;;;19.30;99.90;;;;;;5094979;28;20499;-63
2023/08/25 02:48:26;;;;;;;41.72;32.08;;;19.30;99.90;;;;;;5046684;28;20419;-64
2023/08/25 02:50:52;;;;;;;43.95;34.28;;;19.30;99.90;;;;;;5026348;28;20049;-63
2023/08/25 02:53:17;;;;;;;42.58;33.63;;;19.30;99.90;;;;;;5039188;28;20392;-63
2023/08/25 02:55:43;;;;;;;42.63;32.92;;;19.20;99.90;;;;;;5067136;28;20487;-63
2023/08/25 02:58:08;;;;;;;46.83;35.25;;;19.20;99.90;;;;;;5062304;28;20048;-63
2023/08/25 03:00:34;;;;;;;44.13;33.22;;;19.20;99.90;;;;;;5067186;28;20045;-65
2023/08/25 03:03:00;;;;;;;42.42;32.78;;;19.20;99.90;;;;;;5049995;28;20511;-64
2023/08/25 03:05:25;;;;;;;47.33;33.92;;;19.20;99.90;;;;;;5068354;28;20125;-63
2023/08/25 03:07:52;;;;;;;45.67;33.78;;;19.20;99.90;;;;;;5065899;28;20217;-64
2023/08/25 03:10:18;;;;;;;49.20;34.65;;;19.20;99.90;;;;;;5066603;28;20214;-63
2023/08/25 03:12:43;;;;;;;47.63;34.85;;;19.20;99.90;;;;;;5066693;28;20132;-64
2023/08/25 03:15:09;;;;;;;42.75;33.80;;;19.20;99.90;;;;;;5066818;28;20047;-64
2023/08/25 03:17:35;;;;;;;44.13;34.72;;;19.10;99.90;;;;;;5053211;28;20048;-65
2023/08/25 03:20:02;;;;;;;50.13;35.30;;;19.10;99.90;;;;;;5046444;28;20056;-64
2023/08/25 03:22:28;;;;;;;50.70;36.45;;;19.10;99.90;;;;;;5046503;28;20049;-63
2023/08/25 03:24:54;;;;;;;49.45;35.30;;;19.10;99.90;;;;;;5063399;28;20644;-64
2023/08/25 03:27:19;;;;;;;47.95;35.92;;;19.10;99.90;;;;;;5067892;28;20036;-64
2023/08/25 03:29:45;;;;;;;48.03;35.90;;;19.10;99.90;;;;;;5066584;28;20041;-64
2023/08/25 03:32:11;;;;;;;55.33;37.95;;;19.10;99.90;;;;;;5056160;28;20041;-64
2023/08/25 03:34:37;;;;;;;49.53;35.55;;;19.10;99.90;;;;;;5059088;28;20083;-64
2023/08/25 03:37:03;;;;;;;51.65;38.30;;;19.10;99.90;;;;;;5066217;28;20423;-64
2023/08/25 03:39:29;;;;;;;55.95;38.20;;;19.00;99.90;;;;;;5067429;28;20048;-64
2023/08/25 03:41:55;;;;;;;54.25;37.47;;;19.00;99.90;;;;;;5057498;28;20040;-64
2023/08/25 03:44:20;;;;;;;55.30;39.97;;;19.00;99.90;;;;;;5047604;28;20029;-64
2023/08/25 03:46:46;;;;;;;60.40;40.90;;;19.00;99.90;;;;;;5046370;28;20391;-63
2023/08/25 03:49:12;;;;;;;57.47;41.28;;;19.00;99.90;;;;;;5040451;28;20250;-65
2023/08/25 03:51:38;;;;;;;62.08;40.67;;;19.00;99.90;;;;;;5055295;28;20043;-65
2023/08/25 03:54:06;;;;;;;60.00;41.03;;;19.00;99.90;;;;;;5066071;28;20037;-64
2023/08/25 03:56:31;;;;;;;57.85;41.00;;;19.00;99.90;;;;;;5052721;28;20048;-65
2023/08/25 03:58:57;;;;;;;60.47;40.58;;;19.00;99.90;;;;;;5047714;28;20031;-65
2023/08/25 04:01:23;;;;;;;64.07;43.80;;;19.00;99.90;;;;;;5058972;28;20045;-65
2023/08/25 04:03:48;;;;;;;61.50;44.00;;;19.00;99.90;;;;;;5051701;28;20051;-64
2023/08/25 04:06:14;;;;;;;65.85;43.95;;;19.00;99.90;;;;;;5067235;28;20478;-63
2023/08/25 04:08:39;;;;;;;65.70;45.08;;;19.00;99.90;;;;;;5065703;28;20044;-64
2023/08/25 04:11:05;;;;;;;72.22;46.80;;;19.00;99.90;;;;;;5065999;28;20047;-64
2023/08/25 04:13:32;;;;;;;83.70;48.80;;;19.00;99.90;;;;;;5054657;28;20484;-64
2023/08/25 04:15:59;;;;;;;77.53;48.85;;;19.00;99.90;;;;;;5045106;28;20076;-64
2023/08/25 04:18:25;;;;;;;70.93;46.10;;;19.10;99.90;;;;;;5094430;28;20045;-65
2023/08/25 04:20:51;;;;;;;75.90;49.00;;;19.10;99.90;;;;;;5045450;28;20041;-63
2023/08/25 04:23:17;;;;;;;82.43;49.45;;;19.10;99.90;;;;;;5057401;28;20553;-65
2023/08/25 04:25:43;;;;;;;83.35;48.85;;;19.10;99.90;;;;;;5061303;28;20032;-65
2023/08/25 04:28:09;;;;;;;69.70;46.15;;;19.10;99.90;;;;;;5046890;28;20037;-65
2023/08/25 04:30:35;;;;;;;81.30;50.97;;;19.10;99.90;;;;;;5049483;28;20472;-64
2023/08/25 04:33:01;;;;;;;75.68;48.67;;;19.10;99.90;;;;;;5048302;28;20315;-64
2023/08/25 04:35:26;;;;;;;74.28;48.88;;;19.10;99.90;;;;;;5058753;28;20048;-63
2023/08/25 04:37:52;;;;;;;75.10;48.28;;;19.10;99.90;;;;;;5065361;28;20451;-63
2023/08/25 04:40:18;;;;;;;77.72;48.30;;;19.10;99.90;;;;;;5046346;28;20541;-64
2023/08/25 04:42:44;;;;;;;66.22;46.08;;;19.10;99.90;;;;;;5065174;28;20270;-64
2023/08/25 04:45:10;;;;;;;70.13;45.75;;;19.10;99.90;;;;;;5058974;28;20033;-64
2023/08/25 04:47:36;;;;;;;71.93;47.83;;;19.10;99.90;;;;;;5044711;28;20044;-64
2023/08/25 04:50:03;;;;;;;67.13;44.08;;;19.10;99.90;;;;;;5032677;28;20045;-64
2023/08/25 04:52:30;;;;;;;68.13;43.63;;;19.10;99.90;;;;;;5067169;28;20048;-64
2023/08/25 04:54:55;;;;;;;71.78;44.20;;;19.20;99.90;;;;;;5047994;28;20461;-64
2023/08/25 04:57:22;;;;;;;56.90;40.58;;;19.20;99.90;;;;;;5065124;28;20369;-64
2023/08/25 04:59:47;;;;;;;54.00;39.95;;;19.20;99.90;;;;;;5064336;28;20044;-63
2023/08/25 05:02:14;;;;;;;67.75;44.95;;;19.20;99.90;;;;;;5050226;28;20070;-63
2023/08/25 05:04:39;;;;;;;65.07;44.30;;;19.20;99.90;;;;;;5050962;28;20055;-64
2023/08/25 05:07:07;;;;;;;62.53;44.53;;;19.20;99.90;;;;;;5028130;28;20484;-65
2023/08/25 05:09:32;;;;;;;69.25;47.20;;;19.20;99.90;;;;;;5046022;28;20492;-64
2023/08/25 05:11:58;;;;;;;74.32;47.65;;;19.20;99.90;;;;;;5046058;28;20170;-64
2023/08/25 05:14:23;;;;;;;75.63;49.03;;;19.20;99.90;;;;;;5045255;28;20047;-63
2023/08/25 05:16:49;;;;;;;82.68;48.20;;;19.20;99.90;;;;;;5044533;28;20041;-65
2023/08/25 05:19:14;;;;;;;70.85;47.15;;;19.20;99.90;;;;;;5055583;28;20067;-63
2023/08/25 05:21:40;;;;;;;74.63;50.33;;;19.30;99.90;;;;;;5064330;28;20070;-65
2023/08/25 05:24:20;;;;;;;78.72;48.40;;;19.30;99.90;;;;;;5065804;28;20669;-65
2023/08/25 05:26:47;;;;;;;75.20;49.08;;;19.30;99.90;;;;;;5053005;28;20029;-64
2023/08/25 05:29:14;;;;;;;80.00;48.75;;;19.30;99.90;;;;;;5046230;28;20582;-63
2023/08/25 05:31:40;;;;;;;78.00;48.45;;;19.30;99.90;;;;;;5045325;28;20045;-64
2023/08/25 05:34:05;;;;;;;75.22;49.13;;;19.30;99.90;;;;;;5043147;28;20459;-63
2023/08/25 05:36:31;;;;;;;73.10;46.53;;;19.30;99.90;;;;;;5043970;28;20509;-63
2023/08/25 05:38:57;;;;;;;75.85;45.95;;;19.30;99.90;;;;;;5043135;28;20041;-63
2023/08/25 05:41:22;;;;;;;65.80;44.58;;;19.30;99.90;;;;;;5043471;28;20063;-64
2023/08/25 05:43:48;;;;;;;70.78;45.50;;;19.40;99.90;;;;;;5044266;28;20044;-63
2023/08/25 05:46:13;;;;;;;81.72;48.22;;;19.40;99.90;;;;;;5059788;28;20094;-63
2023/08/25 05:48:39;;;;;;;79.78;49.90;;;19.40;99.90;;;;;;5043055;28;20435;-64
2023/08/25 05:51:05;;;;;;;83.22;49.30;;;19.40;99.90;;;;;;5025297;28;20329;-63
2023/08/25 05:53:30;;;;;;;81.18;51.13;;;19.40;99.90;;;;;;5025542;28;20087;-63
2023/08/25 05:55:57;;;;;;;84.20;49.17;;;19.40;99.90;;;;;;5023719;28;20053;-62
2023/08/25 05:58:22;;;;;;;78.65;48.13;;;19.40;99.90;;;;;;5048966;28;20068;-64
2023/08/25 06:00:48;;;;;;;90.32;50.30;;;19.40;99.90;;;;;;5059029;28;20052;-64
2023/08/25 06:03:14;;;;;;;84.72;49.60;;;19.40;99.90;;;;;;5059570;28;20091;-63
2023/08/25 06:05:39;;;;;;;80.75;50.88;;;19.40;99.90;;;;;;5064994;28;20055;-62
2023/08/25 06:08:05;;;;;;;79.10;49.88;;;19.40;99.90;;;;;;5059196;28;20043;-62
2023/08/25 06:10:31;;;;;;;80.20;50.25;;;19.50;99.90;;;;;;5046764;28;20057;-63
2023/08/25 06:12:57;;;;;;;84.40;50.30;;;19.50;99.90;;;;;;5052571;28;20052;-63
2023/08/25 06:15:22;;;;;;;75.57;48.58;;;19.50;99.90;;;;;;5043933;28;20059;-63
2023/08/25 06:17:48;;;;;;;80.75;47.50;;;19.50;99.90;;;;;;5043599;28;20037;-63
2023/08/25 06:20:13;;;;;;;71.65;48.22;;;19.50;99.90;;;;;;5060756;28;20044;-64
2023/08/25 06:22:40;;;;;;;71.63;47.88;;;19.60;99.90;;;;;;5060878;28;20050;-64
2023/08/25 06:25:07;;;;;;;68.15;45.83;;;19.60;99.90;;;;;;5045004;28;20125;-64
2023/08/25 06:27:32;;;;;;;75.40;48.92;;;19.70;99.90;;;;;;5050581;28;20032;-63
2023/08/25 06:29:58;;;;;;;78.07;47.55;;;19.70;99.90;;;;;;5051643;28;20051;-64
2023/08/25 06:32:24;;;;;;;69.05;46.80;;;19.70;99.90;;;;;;5061905;28;20036;-63
2023/08/25 06:34:51;;;;;;;72.68;46.25;;;19.70;99.90;;;;;;5053581;28;20040;-63
2023/08/25 06:37:17;;;;;;;78.28;47.15;;;19.80;99.90;;;;;;5051447;28;20040;-64
2023/08/25 06:39:45;;;;;;;70.35;45.97;;;19.80;99.90;;;;;;5051051;28;20051;-64
2023/08/25 06:42:11;;;;;;;69.75;47.22;;;19.80;99.90;;;;;;5050037;28;20033;-62
2023/08/25 06:44:37;;;;;;;76.35;46.70;;;19.90;99.90;;;;;;5066739;28;20462;-63
2023/08/25 06:47:02;;;;;;;75.35;47.13;;;19.90;99.90;;;;;;5062560;28;20045;-63
2023/08/25 06:49:28;;;;;;;69.05;44.65;;;20.00;99.90;;;;;;5043867;28;20041;-64
2023/08/25 06:51:54;;;;;;;70.82;45.60;;;20.00;99.90;;;;;;5031837;28;20115;-63
2023/08/25 06:54:21;;;;;;;68.88;45.97;;;20.00;99.90;;;;;;5090057;28;20079;-64
2023/08/25 06:56:47;;;;;;;73.47;46.40;;;20.10;99.90;;;;;;5044408;28;20036;-63
2023/08/25 06:59:14;;;;;;;69.28;45.75;;;20.10;99.90;;;;;;5050291;28;20388;-64
2023/08/25 07:01:40;;;;;;;77.72;47.45;;;20.10;99.90;;;;;;5049372;28;20400;-64
2023/08/25 07:04:06;;;;;;;76.82;48.03;;;20.10;99.90;;;;;;5052659;28;20055;-63
2023/08/25 07:06:31;;;;;;;73.47;45.88;;;20.10;99.90;;;;;;5065576;28;20040;-64
2023/08/25 07:08:57;;;;;;;75.10;47.80;;;20.10;99.90;;;;;;5050127;28;20051;-64
2023/08/25 07:11:24;;;;;;;71.35;46.25;;;20.10;99.90;;;;;;5046145;28;20047;-64
2023/08/25 07:13:50;;;;;;;70.97;46.05;;;20.20;99.90;;;;;;5052123;28;20066;-63
2023/08/25 07:16:16;;;;;;;75.57;45.45;;;20.20;99.90;;;;;;5049567;28;20512;-64
2023/08/25 07:18:42;;;;;;;70.80;44.85;;;20.20;99.90;;;;;;5049945;28;20068;-63
2023/08/25 07:21:08;;;;;;;78.25;48.28;;;20.20;99.90;;;;;;5048821;28;20381;-64
2023/08/25 07:23:34;;;;;;;83.75;47.38;;;20.30;99.90;;;;;;5049150;28;20037;-63
2023/08/25 07:25:59;;;;;;;74.90;47.72;;;20.30;99.90;;;;;;5048428;28;20063;-63
2023/08/25 07:28:25;;;;;;;70.47;45.45;;;20.30;99.90;;;;;;5049175;28;20048;-64
2023/08/25 07:30:51;;;;;;;68.13;45.65;;;20.30;99.90;;;;;;5029285;28;20434;-63
2023/08/25 07:33:17;;;;;;;72.40;45.83;;;20.40;99.90;;;;;;5049088;28;20825;-63
2023/08/25 07:35:43;;;;;;;73.32;47.10;;;20.50;99.90;;;;;;5051296;28;20036;-64
2023/08/25 07:38:10;;;;;;;73.40;45.35;;;20.50;99.90;;;;;;5046440;28;20049;-63
2023/08/25 07:40:37;;;;;;;69.47;43.38;;;20.60;99.90;;;;;;5046866;28;20041;-62
2023/08/25 07:43:03;;;;;;;78.30;45.28;;;20.70;99.90;;;;;;5079702;28;20048;-63
2023/08/25 07:45:29;;;;;;;82.10;45.25;;;20.70;99.90;;;;;;5046553;28;20052;-62
2023/08/25 07:47:55;;;;;;;70.22;41.95;;;20.70;99.90;;;;;;5062203;28;20040;-63
2023/08/25 07:50:21;;;;;;;82.03;45.22;;;20.80;99.90;;;;;;5037782;28;20044;-64
2023/08/25 07:52:47;;;;;;;78.68;44.08;;;20.80;99.90;;;;;;5066464;28;20492;-63
2023/08/25 07:55:13;;;;;;;73.78;43.63;;;20.80;99.90;;;;;;5067335;28;20032;-63
2023/08/25 07:57:38;;;;;;;68.93;42.30;;;20.80;99.90;;;;;;5067827;28;20371;-62
2023/08/25 08:00:06;;;;;;;73.93;42.80;;;20.80;99.90;;;;;;5064130;28;20078;-63
2023/08/25 08:02:33;;;;;;;72.70;42.85;;;20.80;99.90;;;;;;5054378;28;20539;-65
2023/08/25 08:04:58;;;;;;;69.80;43.03;;;20.90;99.90;;;;;;5061072;28;20238;-62
2023/08/25 08:07:24;;;;;;;70.82;43.13;;;20.90;99.90;;;;;;5066021;28;20219;-63
2023/08/25 08:09:50;;;;;;;70.10;43.50;;;20.90;99.90;;;;;;5064458;28;20052;-64
2023/08/25 08:12:16;;;;;;;75.30;43.00;;;20.90;99.90;;;;;;5065925;28;20048;-63
2023/08/25 08:14:42;;;;;;;75.50;43.92;;;21.00;99.90;;;;;;5061139;28;20072;-62
2023/08/25 08:17:08;;;;;;;73.28;44.67;;;21.00;99.90;;;;;;5057587;28;20129;-65
2023/08/25 08:19:34;;;;;;;76.70;44.35;;;20.90;99.90;;;;;;5058650;28;20614;-63
2023/08/25 08:22:00;;;;;;;76.68;45.20;;;21.00;99.90;;;;;;5067032;28;20052;-64
2023/08/25 08:24:26;;;;;;;76.03;44.60;;;21.10;99.90;;;;;;5056100;28;20062;-64
2023/08/25 08:26:51;;;;;;;69.78;42.70;;;21.20;99.90;;;;;;5047350;28;20424;-64
2023/08/25 08:29:17;;;;;;;69.03;41.97;;;21.30;99.90;;;;;;5045823;28;20051;-64
2023/08/25 08:31:44;;;;;;;65.95;41.63;;;21.40;99.90;;;;;;5045435;28;20063;-65
2023/08/25 08:34:10;;;;;;;76.78;43.78;;;21.50;99.90;;;;;;5050503;28;20087;-65
2023/08/25 08:36:36;;;;;;;71.78;41.42;;;21.50;99.90;;;;;;5041951;28;20536;-63
2023/08/25 08:39:03;;;;;;;68.75;42.67;;;21.40;99.90;;;;;;5046504;28;20497;-64
2023/08/25 08:41:30;;;;;;;69.00;41.67;;;21.50;99.90;;;;;;5041283;28;20049;-64
2023/08/25 08:43:59;;;;;;;74.25;42.42;;;21.50;99.90;;;;;;5044571;28;20124;-63
2023/08/25 08:46:28;;;;;;;67.18;42.00;;;21.60;99.90;;;;;;5043789;28;20865;-61
2023/08/25 08:48:54;;;;;;;67.88;41.22;;;21.60;99.90;;;;;;5046069;28;20718;-62
2023/08/25 08:51:21;;;;;;;66.13;39.33;;;21.50;99.90;;;;;;5044023;28;20068;-63
2023/08/25 08:53:49;;;;;;;65.55;38.83;;;21.50;99.90;;;;;;5044301;28;20256;-63
2023/08/25 08:56:15;;;;;;;68.20;42.28;;;21.50;99.90;;;;;;5028143;28;20091;-63
2023/08/25 08:58:42;;;;;;;65.80;42.00;;;21.50;99.90;;;;;;5046211;28;20143;-64
2023/08/25 09:01:10;;;;;;;63.75;40.90;;;21.40;99.90;;;;;;5024468;28;20124;-65
2023/08/25 09:03:39;;;;;;;67.32;39.85;;;21.30;99.90;;;;;;5059046;28;20175;-63
2023/08/25 09:06:05;;;;;;;59.78;39.17;;;21.30;99.90;;;;;;5045803;28;20053;-62
2023/08/25 09:08:31;;;;;;;63.67;39.17;;;21.30;99.90;;;;;;5046290;28;20120;-63
2023/08/25 09:11:03;;;;;;;60.20;37.38;;;21.30;99.90;;;;;;5046061;28;20064;-63
2023/08/25 09:13:34;;;;;;;58.53;38.15;;;21.30;99.90;;;;;;5062061;28;20415;-64
2023/08/25 09:16:00;;;;;;;70.13;39.55;;;21.20;99.90;;;;;;5059089;28;20049;-63
2023/08/25 09:18:34;;;;;;;62.85;39.10;;;21.20;99.90;;;;;;5059675;28;20671;-63
2023/08/25 09:21:00;;;;;;;;;;;21.20;99.90;;;;;;5046472;28;20168;-63
2023/08/25 09:23:26;;;;;;;61.63;39.88;;;21.20;99.90;;;;;;5038810;28;19923;-63
2023/08/25 09:25:53;;;;;;;64.93;39.83;;;21.10;99.90;;;;;;5045701;28;20033;-64
2023/08/25 09:28:23;;;;;;;64.05;40.35;;;21.10;99.90;;;;;;5045224;28;20076;-64
2023/08/25 09:30:49;;;;;;;62.58;39.25;;;21.10;99.90;;;;;;5045902;28;20464;-64
2023/08/25 09:33:15;;;;;;;68.60;41.13;;;21.10;99.90;;;;;;5060912;28;20044;-64
2023/08/25 09:35:41;;;;;;;72.72;43.00;;;21.10;99.90;;;;;;5036305;28;20428;-64
2023/08/25 09:38:07;;;;;;;70.82;43.53;;;21.00;99.90;;;;;;5024647;28;20053;-65
2023/08/25 09:40:36;;;;;;;71.60;44.85;;;21.00;99.90;;;;;;5035704;28;20491;-65
2023/08/25 09:43:03;;;;;;;75.60;44.17;;;21.00;99.90;;;;;;5044070;28;20041;-65
2023/08/25 09:45:31;;;;;;;77.35;44.78;;;20.90;99.90;;;;;;5052752;28;20036;-65
2023/08/25 09:48:12;;;;;;;78.07;44.40;;;20.90;99.90;;;;;;5032358;28;20055;-64
2023/08/25 09:50:41;;;;;;;69.93;42.78;;;20.90;99.90;;;;;;5024375;28;20076;-64
2023/08/25 09:53:08;;;;;;;80.43;47.22;;;20.80;99.90;;;;;;5034442;28;20119;-64
2023/08/25 09:55:36;;;;;;;74.82;45.28;;;20.80;99.90;;;;;;5049483;28;20576;-65
2023/08/25 09:58:04;;;;;;;75.93;45.17;;;20.80;99.90;;;;;;5045020;28;20069;-64
2023/08/25 10:00:31;;;;;;;72.05;43.58;;;20.80;99.90;;;;;;5043355;28;20106;-65
2023/08/25 10:02:58;;;;;;;69.68;42.25;;;20.80;99.90;;;;;;5043809;28;20060;-64
2023/08/25 10:05:24;;;;;;;69.03;44.22;;;20.80;99.90;;;;;;5045641;28;20051;-64
2023/08/25 10:07:51;;;;;;;73.13;44.63;;;20.80;99.90;;;;;;5063680;28;20103;-64
2023/08/25 10:10:18;;;;;;;71.32;45.35;;;20.80;99.90;;;;;;5055896;28;20131;-64
2023/08/25 10:12:44;;;;;;;63.45;41.92;;;20.80;99.90;;;;;;5043969;28;20481;-64
2023/08/25 10:15:12;;;;;;;66.05;42.50;;;20.80;99.90;;;;;;5043535;28;20049;-64
2023/08/25 10:17:38;;;;;;;73.13;44.28;;;20.90;99.90;;;;;;5019679;28;20728;-63
2023/08/25 10:20:08;;;;;;;74.93;44.40;;;20.90;99.90;;;;;;5031133;28;20059;-64
2023/08/25 10:22:35;;;;;;;69.43;43.70;;;20.90;99.90;;;;;;5030984;28;20036;-64
2023/08/25 10:25:05;;;;;;;76.45;44.53;;;20.90;99.90;;;;;;5032259;28;20412;-63
2023/08/25 10:27:32;;;;;;;61.78;40.45;;;21.00;99.90;;;;;;5014762;28;20049;-64
2023/08/25 10:29:59;;;;;;;66.57;43.28;;;21.00;99.90;;;;;;5032328;28;20800;-64
2023/08/25 10:33:05;;;;;;;62.53;41.00;;;21.10;99.90;;;;;;5032347;28;20191;-64
2023/08/25 10:35:46;;;;;;;70.95;44.00;;;21.10;99.90;;;;;;5031654;28;20198;-63
2023/08/25 10:38:17;;;;;;;65.25;42.45;;;21.10;99.90;;;;;;5030600;28;20134;-64
2023/08/25 10:40:50;;;;;;;62.75;40.97;;;21.10;99.90;;;;;;5033995;28;20072;-63
2023/08/25 10:43:29;;;;;;;60.40;39.40;;;21.10;99.90;;;;;;5033626;28;20048;-63
2023/08/25 10:45:55;;;;;;;62.75;39.95;;;21.10;99.90;;;;;;5033897;28;20527;-64
2023/08/25 10:48:24;;;;;;;63.70;40.70;;;21.10;99.90;;;;;;5030563;28;20041;-63
2023/08/25 10:50:52;;;;;;;63.70;40.25;;;21.10;99.90;;;;;;5033899;28;20068;-63
2023/08/25 10:53:38;;;;;;;63.03;41.42;;;21.10;99.90;;;;;;5031785;28;20163;-63
2023/08/25 10:56:23;;;;;;;57.63;39.17;;;21.10;99.90;;;;;;5033795;28;20052;-64
2023/08/25 10:59:04;;;;;;;65.32;41.65;;;21.00;99.90;;;;;;5029894;28;20036;-63
2023/08/25 11:01:36;;;;;;;62.78;39.42;;;21.00;99.90;;;;;;5034307;28;20132;-64
2023/08/25 11:04:04;;;;;;;64.10;41.38;;;21.00;99.90;;;;;;5029294;28;20059;-65
2023/08/25 11:06:49;;;;;;;65.10;40.58;;;21.00;99.90;;;;;;5032887;28;20044;-64
2023/08/25 11:09:17;;;;;;;67.35;40.10;;;21.00;99.90;;;;;;5023642;28;20548;-65
2023/08/25 11:11:45;;;;;;;63.65;40.05;;;21.00;99.90;;;;;;5034616;28;20384;-65
2023/08/25 11:14:11;;;;;;;60.00;40.08;;;21.00;99.90;;;;;;5037058;28;20140;-63
2023/08/25 11:16:40;;;;;;;60.88;43.25;;;21.00;99.90;;;;;;5034820;28;20071;-63
2023/08/25 11:19:09;;;;;;;68.60;44.30;;;21.00;99.90;;;;;;5035049;28;20127;-63
2023/08/25 11:21:35;;;;;;;74.15;45.47;;;21.00;99.90;;;;;;5047174;28;20373;-65
2023/08/25 11:24:01;;;;;;;70.78;45.85;;;20.90;99.90;;;;;;5029495;28;20048;-65
2023/08/25 11:26:27;;;;;;;73.80;47.22;;;20.80;99.90;;;;;;5045987;28;20463;-62
2023/08/25 11:28:53;;;;;;;71.15;44.55;;;20.70;99.90;;;;;;5047055;28;20136;-63
2023/08/25 11:31:25;;;;;;;72.97;47.08;;;20.70;99.90;;;;;;5083729;28;20124;-65
2023/08/25 11:33:52;;;;;;;96.25;51.05;;;20.60;99.90;;;;;;5049205;28;20033;-67
2023/08/25 11:36:18;;;;;;;80.40;50.13;;;20.60;99.90;;;;;;5040470;28;20186;-65
2023/08/25 11:38:51;;;;;;;89.35;52.75;;;20.50;99.90;;;;;;5046993;28;20041;-70
2023/08/25 11:41:17;;;;;;;91.63;54.78;;;20.50;99.90;;;;;;5041380;28;20051;-68
2023/08/25 11:43:45;;;;;;;100.70;55.83;;;20.40;99.90;;;;;;5046373;28;20049;-66
2023/08/25 11:46:12;;;;;;;99.97;55.08;;;20.40;99.90;;;;;;5048879;28;20587;-67
2023/08/25 11:48:38;;;;;;;87.57;52.90;;;20.40;99.90;;;;;;5053009;28;20104;-69
2023/08/25 11:51:04;;;;;;;109.82;55.38;;;20.30;99.90;;;;;;5045166;28;20344;-68
2023/08/25 11:53:30;;;;;;;95.75;56.17;;;20.30;99.90;;;;;;5047412;28;20056;-67
2023/08/25 11:56:04;;;;;;;95.40;54.03;;;20.30;99.90;;;;;;5045465;28;20033;-66
2023/08/25 11:58:34;;;;;;;102.40;54.78;;;20.20;99.90;;;;;;5035868;28;20513;-67
2023/08/25 12:01:09;;;;;;;121.07;58.22;;;20.20;99.90;;;;;;5044970;28;20412;-70
2023/08/25 12:03:35;;;;;;;108.50;56.80;;;20.20;99.90;;;;;;5045176;28;20041;-71
2023/08/25 12:06:09;;;;;;;99.25;55.47;;;20.20;99.90;;;;;;5046818;28;20037;-70
2023/08/25 12:08:36;;;;;;;97.93;53.20;;;20.20;99.90;;;;;;5047188;28;20078;-71
2023/08/25 12:11:04;;;;;;;76.72;48.33;;;20.20;99.90;;;;;;5044826;28;20056;-66
2023/08/25 12:13:32;;;;;;;97.15;53.95;;;20.10;99.90;;;;;;5048963;28;20041;-68
2023/08/25 12:15:58;;;;;;;89.75;51.90;;;20.10;99.90;;;;;;5045490;28;20853;-68
2023/08/25 12:18:34;;;;;;;84.13;50.67;;;20.10;99.90;;;;;;5056552;28;20040;-66
2023/08/25 12:21:05;;;;;;;83.53;49.65;;;20.00;99.90;;;;;;5045294;28;20037;-68
2023/08/25 12:23:33;;;;;;;90.80;52.80;;;20.00;99.90;;;;;;5052709;28;20039;-66
2023/08/25 12:25:58;;;;;;;91.25;51.55;;;19.90;99.90;;;;;;5045242;28;20045;-66
2023/08/25 12:28:24;;;;;;;87.57;51.40;;;19.90;99.90;;;;;;5044778;28;20032;-67